sensor_id;sensor_type;location;lat;lon;timestamp;pressure;altitude;pressure_sealevel;temperature
34807;BMP280;18310;55.586;12.286;2023-05-21T00:02:34;102621.25;;;17.85
34807;BMP280;18310;55.586;12.286;2023-05-21T00:05:40;102623.75;;;17.90
34807;BMP280;18310;55.586;12.286;2023-05-21T00:08:44;102632.00;;;17.90
34807;BMP280;18310;55.586;12.286;2023-05-21T00:11:47;102620.53;;;17.88
34807;BMP280;18310;55.586;12.286;2023-05-21T00:14:51;102621.78;;;17.91
34807;BMP280;18310;55.586;12.286;2023-05-21T00:17:54;102618.66;;;17.92
34807;BMP280;18310;55.586;12.286;2023-05-21T00:20:59;102615.13;;;17.92
34807;BMP280;18310;55.586;12.286;2023-05-21T00:24:02;102619.84;;;17.91
34807;BMP280;18310;55.586;12.286;2023-05-21T00:27:06;102605.59;;;17.89
34807;BMP280;18310;55.586;12.286;2023-05-21T00:30:09;102609.88;;;17.87
34807;BMP280;18310;55.586;12.286;2023-05-21T00:33:13;102614.59;;;17.86
34807;BMP280;18310;55.586;12.286;2023-05-21T00:36:18;102605.16;;;17.87
34807;BMP280;18310;55.586;12.286;2023-05-21T00:39:24;102606.31;;;17.86
34807;BMP280;18310;55.586;12.286;2023-05-21T00:42:28;102608.69;;;17.88
34807;BMP280;18310;55.586;12.286;2023-05-21T00:45:31;102600.09;;;17.89
34807;BMP280;18310;55.586;12.286;2023-05-21T00:48:38;102602.50;;;17.91
34807;BMP280;18310;55.586;12.286;2023-05-21T00:51:43;102605.59;;;17.89
34807;BMP280;18310;55.586;12.286;2023-05-21T00:54:48;102592.97;;;17.88
34807;BMP280;18310;55.586;12.286;2023-05-21T00:57:51;102591.03;;;17.89
34807;BMP280;18310;55.586;12.286;2023-05-21T01:00:55;102592.97;;;17.88
34807;BMP280;18310;55.586;12.286;2023-05-21T01:04:00;102590.22;;;17.88
34807;BMP280;18310;55.586;12.286;2023-05-21T01:07:04;102584.63;;;17.85
34807;BMP280;18310;55.586;12.286;2023-05-21T01:10:10;102582.94;;;17.80
34807;BMP280;18310;55.586;12.286;2023-05-21T01:13:15;102573.06;;;17.79
34807;BMP280;18310;55.586;12.286;2023-05-21T01:16:18;102574.75;;;17.68
34807;BMP280;18310;55.586;12.286;2023-05-21T01:19:23;102574.88;;;17.72
34807;BMP280;18310;55.586;12.286;2023-05-21T01:22:28;102575.81;;;17.64
34807;BMP280;18310;55.586;12.286;2023-05-21T01:25:35;102575.56;;;17.69
34807;BMP280;18310;55.586;12.286;2023-05-21T01:28:39;102581.88;;;17.69
34807;BMP280;18310;55.586;12.286;2023-05-21T01:31:53;102574.94;;;17.60
34807;BMP280;18310;55.586;12.286;2023-05-21T01:35:01;102575.38;;;17.62
34807;BMP280;18310;55.586;12.286;2023-05-21T01:38:12;102576.28;;;17.66
34807;BMP280;18310;55.586;12.286;2023-05-21T01:41:18;102549.72;;;17.58
34807;BMP280;18310;55.586;12.286;2023-05-21T01:44:23;102551.78;;;17.61
34807;BMP280;18310;55.586;12.286;2023-05-21T01:47:28;102558.94;;;17.65
34807;BMP280;18310;55.586;12.286;2023-05-21T01:50:34;102542.63;;;17.57
34807;BMP280;18310;55.586;12.286;2023-05-21T01:53:38;102549.44;;;17.63
34807;BMP280;18310;55.586;12.286;2023-05-21T01:56:43;102549.81;;;17.61
34807;BMP280;18310;55.586;12.286;2023-05-21T01:59:47;102541.09;;;17.59
34807;BMP280;18310;55.586;12.286;2023-05-21T02:02:50;102544.66;;;17.60
34807;BMP280;18310;55.586;12.286;2023-05-21T02:05:55;102525.19;;;17.53
34807;BMP280;18310;55.586;12.286;2023-05-21T02:08:58;102536.81;;;17.62
34807;BMP280;18310;55.586;12.286;2023-05-21T02:12:03;102541.09;;;17.59
34807;BMP280;18310;55.586;12.286;2023-05-21T02:15:07;102537.19;;;17.60
34807;BMP280;18310;55.586;12.286;2023-05-21T02:18:10;102531.69;;;17.60
34807;BMP280;18310;55.586;12.286;2023-05-21T02:21:18;102533.63;;;17.60
34807;BMP280;18310;55.586;12.286;2023-05-21T02:24:22;102533.28;;;17.61
34807;BMP280;18310;55.586;12.286;2023-05-21T02:27:26;102530.53;;;17.61
34807;BMP280;18310;55.586;12.286;2023-05-21T02:30:32;102531.75;;;17.64
34807;BMP280;18310;55.586;12.286;2023-05-21T02:33:38;102534.97;;;17.66
34807;BMP280;18310;55.586;12.286;2023-05-21T02:36:43;102531.88;;;17.67
34807;BMP280;18310;55.586;12.286;2023-05-21T02:39:49;102531.50;;;17.69
34807;BMP280;18310;55.586;12.286;2023-05-21T02:42:53;102534.72;;;17.71
34807;BMP280;18310;55.586;12.286;2023-05-21T02:45:57;102530.06;;;17.75
34807;BMP280;18310;55.586;12.286;2023-05-21T02:49:00;102530.50;;;17.77
34807;BMP280;18310;55.586;12.286;2023-05-21T02:52:04;102526.25;;;17.79
34807;BMP280;18310;55.586;12.286;2023-05-21T02:55:08;102504.31;;;17.67
34807;BMP280;18310;55.586;12.286;2023-05-21T02:58:13;102524.47;;;17.87
34807;BMP280;18310;55.586;12.286;2023-05-21T03:01:16;102515.81;;;17.88
34807;BMP280;18310;55.586;12.286;2023-05-21T03:04:20;102524.09;;;17.88
34807;BMP280;18310;55.586;12.286;2023-05-21T03:07:24;102517.88;;;17.91
34807;BMP280;18310;55.586;12.286;2023-05-21T03:10:27;102514.41;;;17.94
34807;BMP280;18310;55.586;12.286;2023-05-21T03:13:32;102514.03;;;17.96
34807;BMP280;18310;55.586;12.286;2023-05-21T03:16:36;102508.16;;;17.98
34807;BMP280;18310;55.586;12.286;2023-05-21T03:19:40;102505.03;;;17.99
34807;BMP280;18310;55.586;12.286;2023-05-21T03:22:44;102505.03;;;17.99
34807;BMP280;18310;55.586;12.286;2023-05-21T03:25:49;102503.91;;;18.00
34807;BMP280;18310;55.586;12.286;2023-05-21T03:28:54;102500.78;;;18.02
34807;BMP280;18310;55.586;12.286;2023-05-21T03:31:59;102496.06;;;18.02
34807;BMP280;18310;55.586;12.286;2023-05-21T03:35:03;102500.41;;;18.03
34807;BMP280;18310;55.586;12.286;2023-05-21T03:38:06;102494.56;;;18.05
34807;BMP280;18310;55.586;12.286;2023-05-21T03:41:10;102495.06;;;18.10
34807;BMP280;18310;55.586;12.286;2023-05-21T03:44:15;102506.25;;;18.17
34807;BMP280;18310;55.586;12.286;2023-05-21T03:47:18;102498.13;;;18.24
34807;BMP280;18310;55.586;12.286;2023-05-21T03:50:22;102482.81;;;18.27
34807;BMP280;18310;55.586;12.286;2023-05-21T03:53:25;102488.34;;;18.27
34807;BMP280;18310;55.586;12.286;2023-05-21T03:56:29;102489.19;;;18.31
34807;BMP280;18310;55.586;12.286;2023-05-21T03:59:33;102502.41;;;18.41
34807;BMP280;18310;55.586;12.286;2023-05-21T04:02:37;102485.06;;;18.40
34807;BMP280;18310;55.586;12.286;2023-05-21T04:05:40;102491.63;;;18.52
34807;BMP280;18310;55.586;12.286;2023-05-21T04:08:44;102492.47;;;18.56
34807;BMP280;18310;55.586;12.286;2023-05-21T04:11:47;102503.56;;;18.59
34807;BMP280;18310;55.586;12.286;2023-05-21T04:14:52;102502.09;;;18.65
34807;BMP280;18310;55.586;12.286;2023-05-21T04:17:55;102493.91;;;18.69
34807;BMP280;18310;55.586;12.286;2023-05-21T04:20:59;102491.22;;;18.72
34807;BMP280;18310;55.586;12.286;2023-05-21T04:24:03;102492.47;;;18.75
34807;BMP280;18310;55.586;12.286;2023-05-21T04:27:06;102488.91;;;18.74
34807;BMP280;18310;55.586;12.286;2023-05-21T04:30:12;102492.28;;;18.68
34807;BMP280;18310;55.586;12.286;2023-05-21T04:33:15;102499.69;;;18.83
34807;BMP280;18310;55.586;12.286;2023-05-21T04:36:21;102489.53;;;18.87
34807;BMP280;18310;55.586;12.286;2023-05-21T04:39:25;102492.53;;;19.01
34807;BMP280;18310;55.586;12.286;2023-05-21T04:42:29;102499.78;;;19.09
34807;BMP280;18310;55.586;12.286;2023-05-21T04:45:35;102486.00;;;19.13
34807;BMP280;18310;55.586;12.286;2023-05-21T04:48:38;102492.59;;;19.27
34807;BMP280;18310;55.586;12.286;2023-05-21T04:51:42;102491.00;;;19.26
34807;BMP280;18310;55.586;12.286;2023-05-21T04:54:46;102480.25;;;19.44
34807;BMP280;18310;55.586;12.286;2023-05-21T04:57:49;102485.16;;;19.58
34807;BMP280;18310;55.586;12.286;2023-05-21T05:00:55;102480.22;;;19.70
34807;BMP280;18310;55.586;12.286;2023-05-21T05:03:59;102480.47;;;19.88
34807;BMP280;18310;55.586;12.286;2023-05-21T05:07:02;102486.72;;;20.11
34807;BMP280;18310;55.586;12.286;2023-05-21T05:10:07;102477.84;;;20.28
34807;BMP280;18310;55.586;12.286;2023-05-21T05:13:10;102477.25;;;20.45
34807;BMP280;18310;55.586;12.286;2023-05-21T05:16:14;102470.66;;;20.60
34807;BMP280;18310;55.586;12.286;2023-05-21T05:19:19;102455.44;;;20.77
34807;BMP280;18310;55.586;12.286;2023-05-21T05:22:23;102462.31;;;20.97
34807;BMP280;18310;55.586;12.286;2023-05-21T05:26:01;102466.66;;;21.49
34807;BMP280;18310;55.586;12.286;2023-05-21T05:29:04;102470.41;;;21.89
34807;BMP280;18310;55.586;12.286;2023-05-21T05:32:07;102464.25;;;22.31
34807;BMP280;18310;55.586;12.286;2023-05-21T05:35:11;102463.09;;;22.74
34807;BMP280;18310;55.586;12.286;2023-05-21T05:38:14;102460.72;;;23.08
34807;BMP280;18310;55.586;12.286;2023-05-21T05:41:19;102456.66;;;23.44
34807;BMP280;18310;55.586;12.286;2023-05-21T05:44:23;102440.41;;;23.46
34807;BMP280;18310;55.586;12.286;2023-05-21T05:47:26;102453.38;;;23.77
34807;BMP280;18310;55.586;12.286;2023-05-21T05:50:30;102446.72;;;24.23
34807;BMP280;18310;55.586;12.286;2023-05-21T05:53:33;102441.22;;;24.67
34807;BMP280;18310;55.586;12.286;2023-05-21T05:56:38;102441.97;;;25.12
34807;BMP280;18310;55.586;12.286;2023-05-21T05:59:41;102437.34;;;25.32
34807;BMP280;18310;55.586;12.286;2023-05-21T06:02:44;102430.63;;;25.60
34807;BMP280;18310;55.586;12.286;2023-05-21T06:05:49;102439.75;;;25.90
34807;BMP280;18310;55.586;12.286;2023-05-21T06:08:52;102442.34;;;26.05
34807;BMP280;18310;55.586;12.286;2023-05-21T06:11:57;102441.06;;;26.09
34807;BMP280;18310;55.586;12.286;2023-05-21T06:15:00;102447.13;;;26.04
34807;BMP280;18310;55.586;12.286;2023-05-21T06:18:04;102450.97;;;26.14
34807;BMP280;18310;55.586;12.286;2023-05-21T06:21:07;102449.22;;;26.23
34807;BMP280;18310;55.586;12.286;2023-05-21T06:24:11;102451.63;;;26.48
34807;BMP280;18310;55.586;12.286;2023-05-21T06:27:15;102446.13;;;26.44
34807;BMP280;18310;55.586;12.286;2023-05-21T06:30:18;102452.91;;;26.43
34807;BMP280;18310;55.586;12.286;2023-05-21T06:33:22;102456.50;;;26.44
34807;BMP280;18310;55.586;12.286;2023-05-21T06:36:25;102461.88;;;26.54
34807;BMP280;18310;55.586;12.286;2023-05-21T06:39:31;102461.00;;;26.81
34807;BMP280;18310;55.586;12.286;2023-05-21T06:42:35;102458.66;;;27.18
34807;BMP280;18310;55.586;12.286;2023-05-21T06:45:39;102471.41;;;27.59
34807;BMP280;18310;55.586;12.286;2023-05-21T06:48:43;102464.31;;;28.06
34807;BMP280;18310;55.586;12.286;2023-05-21T06:51:46;102466.75;;;28.52
34807;BMP280;18310;55.586;12.286;2023-05-21T06:54:50;102476.22;;;28.87
34807;BMP280;18310;55.586;12.286;2023-05-21T06:57:56;102475.44;;;29.28
34807;BMP280;18310;55.586;12.286;2023-05-21T07:00:59;102477.06;;;29.54
34807;BMP280;18310;55.586;12.286;2023-05-21T07:04:03;102473.91;;;29.65
34807;BMP280;18310;55.586;12.286;2023-05-21T07:07:07;102468.63;;;29.54
34807;BMP280;18310;55.586;12.286;2023-05-21T07:10:10;102470.38;;;29.23
34807;BMP280;18310;55.586;12.286;2023-05-21T07:13:15;102464.44;;;28.92
34807;BMP280;18310;55.586;12.286;2023-05-21T07:16:19;102467.31;;;28.76
34807;BMP280;18310;55.586;12.286;2023-05-21T07:19:22;102470.38;;;28.66
34807;BMP280;18310;55.586;12.286;2023-05-21T07:22:26;102467.00;;;28.58
34807;BMP280;18310;55.586;12.286;2023-05-21T07:25:30;102469.94;;;28.22
34807;BMP280;18310;55.586;12.286;2023-05-21T07:28:35;102466.13;;;27.80
34807;BMP280;18310;55.586;12.286;2023-05-21T07:31:38;102477.38;;;27.41
34807;BMP280;18310;55.586;12.286;2023-05-21T07:34:41;102460.41;;;26.93
34807;BMP280;18310;55.586;12.286;2023-05-21T07:37:44;102473.91;;;26.75
34807;BMP280;18310;55.586;12.286;2023-05-21T07:40:48;102465.50;;;26.51
34807;BMP280;18310;55.586;12.286;2023-05-21T07:43:53;102473.09;;;26.28
34807;BMP280;18310;55.586;12.286;2023-05-21T07:46:56;102454.69;;;26.07
34807;BMP280;18310;55.586;12.286;2023-05-21T07:50:00;102472.59;;;26.10
34807;BMP280;18310;55.586;12.286;2023-05-21T07:53:03;102470.22;;;26.08
34807;BMP280;18310;55.586;12.286;2023-05-21T07:56:07;102471.03;;;26.09
34807;BMP280;18310;55.586;12.286;2023-05-21T07:59:13;102455.50;;;26.04
34807;BMP280;18310;55.586;12.286;2023-05-21T08:02:38;102461.09;;;26.04
34807;BMP280;18310;55.586;12.286;2023-05-21T08:05:41;102466.56;;;26.11
34807;BMP280;18310;55.586;12.286;2023-05-21T08:08:45;102466.38;;;26.25
34807;BMP280;18310;55.586;12.286;2023-05-21T08:11:48;102445.53;;;26.30
34807;BMP280;18310;55.586;12.286;2023-05-21T08:14:52;102465.50;;;26.51
34807;BMP280;18310;55.586;12.286;2023-05-21T08:17:56;102466.88;;;26.67
34807;BMP280;18310;55.586;12.286;2023-05-21T08:21:00;102462.78;;;26.71
34807;BMP280;18310;55.586;12.286;2023-05-21T08:24:03;102462.78;;;26.71
34807;BMP280;18310;55.586;12.286;2023-05-21T08:27:07;102471.53;;;26.73
34807;BMP280;18310;55.586;12.286;2023-05-21T08:30:11;102468.19;;;26.82
34807;BMP280;18310;55.586;12.286;2023-05-21T08:33:16;102466.13;;;26.86
34807;BMP280;18310;55.586;12.286;2023-05-21T08:36:23;102479.66;;;26.87
34807;BMP280;18310;55.586;12.286;2023-05-21T08:39:26;102483.63;;;26.90
34807;BMP280;18310;55.586;12.286;2023-05-21T08:42:38;102474.44;;;26.89
34807;BMP280;18310;55.586;12.286;2023-05-21T08:45:44;102475.34;;;26.83
34807;BMP280;18310;55.586;12.286;2023-05-21T08:48:50;102486.88;;;26.85
34807;BMP280;18310;55.586;12.286;2023-05-21T08:51:56;102498.81;;;26.89
34807;BMP280;18310;55.586;12.286;2023-05-21T08:55:00;102489.22;;;26.90
34807;BMP280;18310;55.586;12.286;2023-05-21T08:58:05;102484.03;;;26.88
34807;BMP280;18310;55.586;12.286;2023-05-21T09:01:08;102477.72;;;26.84
34807;BMP280;18310;55.586;12.286;2023-05-21T09:04:16;102465.16;;;26.73
34807;BMP280;18310;55.586;12.286;2023-05-21T09:07:24;102481.06;;;26.76
34807;BMP280;18310;55.586;12.286;2023-05-21T09:10:35;102475.13;;;26.74
34807;BMP280;18310;55.586;12.286;2023-05-21T09:13:39;102474.69;;;26.75
34807;BMP280;18310;55.586;12.286;2023-05-21T09:16:43;102468.50;;;26.64
34807;BMP280;18310;55.586;12.286;2023-05-21T09:20:15;102468.34;;;26.71
34807;BMP280;18310;55.586;12.286;2023-05-21T09:23:18;102464.41;;;26.69
34807;BMP280;18310;55.586;12.286;2023-05-21T09:26:22;102467.22;;;26.69
34807;BMP280;18310;55.586;12.286;2023-05-21T09:29:26;102461.97;;;26.71
34807;BMP280;18310;55.586;12.286;2023-05-21T09:32:30;102452.81;;;26.70
34807;BMP280;18310;55.586;12.286;2023-05-21T09:35:35;102455.13;;;26.75
34807;BMP280;18310;55.586;12.286;2023-05-21T09:38:39;102457.88;;;26.79
34807;BMP280;18310;55.586;12.286;2023-05-21T09:41:42;102458.28;;;26.77
34807;BMP280;18310;55.586;12.286;2023-05-21T09:44:46;102449.50;;;26.79
34807;BMP280;18310;55.586;12.286;2023-05-21T09:47:51;102447.75;;;26.85
34807;BMP280;18310;55.586;12.286;2023-05-21T09:51:06;102446.16;;;26.84
34807;BMP280;18310;55.586;12.286;2023-05-21T09:54:10;102454.16;;;27.05
34807;BMP280;18310;55.586;12.286;2023-05-21T09:57:14;102460.25;;;27.19
34807;BMP280;18310;55.586;12.286;2023-05-21T10:00:18;102453.22;;;27.31
34807;BMP280;18310;55.586;12.286;2023-05-21T10:03:23;102447.41;;;27.42
34807;BMP280;18310;55.586;12.286;2023-05-21T10:06:31;102447.47;;;27.58
34807;BMP280;18310;55.586;12.286;2023-05-21T10:09:37;102438.47;;;27.66
34807;BMP280;18310;55.586;12.286;2023-05-21T10:12:42;102432.81;;;27.70
34807;BMP280;18310;55.586;12.286;2023-05-21T10:15:48;102438.41;;;27.70
34807;BMP280;18310;55.586;12.286;2023-05-21T10:18:53;102441.91;;;27.74
34807;BMP280;18310;55.586;12.286;2023-05-21T10:21:59;102428.66;;;27.74
34807;BMP280;18310;55.586;12.286;2023-05-21T10:25:06;102431.13;;;27.72
34807;BMP280;18310;55.586;12.286;2023-05-21T10:28:10;102420.72;;;27.73
34807;BMP280;18310;55.586;12.286;2023-05-21T10:31:15;102417.66;;;27.67
34807;BMP280;18310;55.586;12.286;2023-05-21T10:34:20;102425.38;;;27.79
34807;BMP280;18310;55.586;12.286;2023-05-21T10:37:26;102420.81;;;27.85
34807;BMP280;18310;55.586;12.286;2023-05-21T10:40:29;102429.41;;;27.95
34807;BMP280;18310;55.586;12.286;2023-05-21T10:43:50;102421.00;;;27.95
34807;BMP280;18310;55.586;12.286;2023-05-21T10:47:03;102412.44;;;28.02
34807;BMP280;18310;55.586;12.286;2023-05-21T10:50:41;102414.88;;;28.00
34807;BMP280;18310;55.586;12.286;2023-05-21T10:54:19;102424.34;;;28.06
34807;BMP280;18310;55.586;12.286;2023-05-21T10:57:44;102416.63;;;28.10
34807;BMP280;18310;55.586;12.286;2023-05-21T11:00:51;102421.53;;;28.06
34807;BMP280;18310;55.586;12.286;2023-05-21T11:03:56;102428.97;;;28.12
34807;BMP280;18310;55.586;12.286;2023-05-21T11:07:00;102424.88;;;28.17
34807;BMP280;18310;55.586;12.286;2023-05-21T11:13:28;102415.41;;;28.11
34807;BMP280;18310;55.586;12.286;2023-05-21T11:16:34;102428.72;;;28.23
34807;BMP280;18310;55.586;12.286;2023-05-21T11:19:39;102417.50;;;28.23
34807;BMP280;18310;55.586;12.286;2023-05-21T11:22:44;102411.03;;;28.26
34807;BMP280;18310;55.586;12.286;2023-05-21T11:25:59;102416.97;;;28.28
34807;BMP280;18310;55.586;12.286;2023-05-21T11:29:09;102408.56;;;28.28
34807;BMP280;18310;55.586;12.286;2023-05-21T11:32:13;102406.72;;;28.21
34807;BMP280;18310;55.586;12.286;2023-05-21T11:35:21;102408.22;;;28.26
34807;BMP280;18310;55.586;12.286;2023-05-21T11:38:27;102402.19;;;28.27
34807;BMP280;18310;55.586;12.286;2023-05-21T11:41:48;102396.72;;;28.36
34807;BMP280;18310;55.586;12.286;2023-05-21T11:44:55;102383.84;;;28.39
34807;BMP280;18310;55.586;12.286;2023-05-21T11:47:59;102390.41;;;28.48
34807;BMP280;18310;55.586;12.286;2023-05-21T11:51:03;102397.72;;;28.59
34807;BMP280;18310;55.586;12.286;2023-05-21T11:54:07;102396.94;;;28.58
34807;BMP280;18310;55.586;12.286;2023-05-21T11:57:11;102392.94;;;28.59
34807;BMP280;18310;55.586;12.286;2023-05-21T12:00:18;102382.22;;;28.54
34807;BMP280;18310;55.586;12.286;2023-05-21T12:03:22;102384.84;;;28.61
34807;BMP280;18310;55.586;12.286;2023-05-21T12:06:28;102384.06;;;28.61
34807;BMP280;18310;55.586;12.286;2023-05-21T12:09:38;102376.00;;;28.63
34807;BMP280;18310;55.586;12.286;2023-05-21T12:12:41;102385.88;;;28.67
34807;BMP280;18310;55.586;12.286;2023-05-21T12:15:58;102392.53;;;28.73
34807;BMP280;18310;55.586;12.286;2023-05-21T12:19:02;102373.78;;;28.70
34807;BMP280;18310;55.586;12.286;2023-05-21T12:22:06;102389.16;;;28.78
34807;BMP280;18310;55.586;12.286;2023-05-21T12:25:10;102374.94;;;28.56
34807;BMP280;18310;55.586;12.286;2023-05-21T12:28:14;102381.31;;;28.73
34807;BMP280;18310;55.586;12.286;2023-05-21T12:31:19;102379.59;;;28.76
34807;BMP280;18310;55.586;12.286;2023-05-21T12:34:36;102385.38;;;28.85
34807;BMP280;18310;55.586;12.286;2023-05-21T12:37:40;102379.53;;;28.92
34807;BMP280;18310;55.586;12.286;2023-05-21T12:40:43;102380.56;;;28.85
34807;BMP280;18310;55.586;12.286;2023-05-21T12:43:47;102378.78;;;29.04
34807;BMP280;18310;55.586;12.286;2023-05-21T12:46:52;102386.09;;;29.14
34807;BMP280;18310;55.586;12.286;2023-05-21T12:49:56;102379.34;;;29.11
34807;BMP280;18310;55.586;12.286;2023-05-21T12:53:22;102379.56;;;29.04
34807;BMP280;18310;55.586;12.286;2023-05-21T12:56:25;102376.31;;;28.93
34807;BMP280;18310;55.586;12.286;2023-05-21T12:59:38;102379.06;;;28.81
34807;BMP280;18310;55.586;12.286;2023-05-21T13:02:46;102385.41;;;28.69
34807;BMP280;18310;55.586;12.286;2023-05-21T13:05:57;102388.63;;;28.54
34807;BMP280;18310;55.586;12.286;2023-05-21T13:09:02;102387.91;;;28.38
34807;BMP280;18310;55.586;12.286;2023-05-21T13:12:05;102395.09;;;28.23
34807;BMP280;18310;55.586;12.286;2023-05-21T13:15:08;102389.94;;;28.05
34807;BMP280;18310;55.586;12.286;2023-05-21T13:18:12;102387.91;;;27.89
34807;BMP280;18310;55.586;12.286;2023-05-21T13:21:16;102391.41;;;27.77
34807;BMP280;18310;55.586;12.286;2023-05-21T13:24:22;102381.78;;;27.62
34807;BMP280;18310;55.586;12.286;2023-05-21T13:27:26;102380.03;;;27.52
34807;BMP280;18310;55.586;12.286;2023-05-21T13:30:30;102369.50;;;27.40
34807;BMP280;18310;55.586;12.286;2023-05-21T13:33:35;102383.84;;;27.42
34807;BMP280;18310;55.586;12.286;2023-05-21T13:36:38;102386.66;;;27.42
34807;BMP280;18310;55.586;12.286;2023-05-21T13:39:43;102390.66;;;27.41
34807;BMP280;18310;55.586;12.286;2023-05-21T13:42:47;102381.66;;;27.34
34807;BMP280;18310;55.586;12.286;2023-05-21T13:45:51;102384.47;;;27.34
34807;BMP280;18310;55.586;12.286;2023-05-21T13:48:54;102380.50;;;27.31
34807;BMP280;18310;55.586;12.286;2023-05-21T13:51:58;102359.16;;;27.21
34807;BMP280;18310;55.586;12.286;2023-05-21T13:55:03;102367.13;;;27.23
34807;BMP280;18310;55.586;12.286;2023-05-21T13:58:07;102365.94;;;27.40
34807;BMP280;18310;55.586;12.286;2023-05-21T14:01:11;102368.47;;;27.50
34807;BMP280;18310;55.586;12.286;2023-05-21T14:04:15;102359.66;;;27.52
34807;BMP280;18310;55.586;12.286;2023-05-21T14:07:19;102358.69;;;27.74
34807;BMP280;18310;55.586;12.286;2023-05-21T14:10:25;102349.34;;;27.81
34807;BMP280;18310;55.586;12.286;2023-05-21T14:13:28;102351.53;;;27.89
34807;BMP280;18310;55.586;12.286;2023-05-21T14:16:31;102357.91;;;27.90
34807;BMP280;18310;55.586;12.286;2023-05-21T14:19:35;102335.81;;;27.79
34807;BMP280;18310;55.586;12.286;2023-05-21T14:22:38;102354.44;;;27.86
34807;BMP280;18310;55.586;12.286;2023-05-21T14:25:44;102354.31;;;27.89
34807;BMP280;18310;55.586;12.286;2023-05-21T14:28:47;102354.25;;;27.93
34807;BMP280;18310;55.586;12.286;2023-05-21T14:31:51;102356.94;;;27.97
34807;BMP280;18310;55.586;12.286;2023-05-21T14:34:55;102351.72;;;27.99
34807;BMP280;18310;55.586;12.286;2023-05-21T14:38:00;102350.47;;;28.00
34807;BMP280;18310;55.586;12.286;2023-05-21T14:41:04;102350.13;;;27.98
34807;BMP280;18310;55.586;12.286;2023-05-21T14:44:08;102344.94;;;27.96
34807;BMP280;18310;55.586;12.286;2023-05-21T14:47:11;102339.03;;;27.94
34807;BMP280;18310;55.586;12.286;2023-05-21T14:50:15;102343.03;;;27.93
34807;BMP280;18310;55.586;12.286;2023-05-21T14:53:19;102338.59;;;27.96
34807;BMP280;18310;55.586;12.286;2023-05-21T14:56:25;102331.66;;;28.00
34807;BMP280;18310;55.586;12.286;2023-05-21T14:59:29;102339.53;;;28.05
34807;BMP280;18310;55.586;12.286;2023-05-21T15:02:33;102341.34;;;28.12
34807;BMP280;18310;55.586;12.286;2023-05-21T15:05:37;102340.56;;;28.11
34807;BMP280;18310;55.586;12.286;2023-05-21T15:08:40;102330.00;;;28.03
34807;BMP280;18310;55.586;12.286;2023-05-21T15:11:45;102337.00;;;28.11
34807;BMP280;18310;55.586;12.286;2023-05-21T15:14:53;102342.34;;;28.05
34807;BMP280;18310;55.586;12.286;2023-05-21T15:18:18;102338.84;;;28.01
34807;BMP280;18310;55.586;12.286;2023-05-21T15:21:23;102335.53;;;27.90
34807;BMP280;18310;55.586;12.286;2023-05-21T15:24:29;102327.84;;;27.78
34807;BMP280;18310;55.586;12.286;2023-05-21T15:27:32;102333.25;;;27.69
34807;BMP280;18310;55.586;12.286;2023-05-21T15:30:36;102331.41;;;27.62
34807;BMP280;18310;55.586;12.286;2023-05-21T15:33:42;102335.28;;;27.52
34807;BMP280;18310;55.586;12.286;2023-05-21T15:36:45;102327.47;;;27.44
34807;BMP280;18310;55.586;12.286;2023-05-21T15:39:48;102333.66;;;27.35
34807;BMP280;18310;55.586;12.286;2023-05-21T15:42:51;102333.00;;;27.28
34807;BMP280;18310;55.586;12.286;2023-05-21T15:45:55;102331.97;;;27.21
34807;BMP280;18310;55.586;12.286;2023-05-21T15:49:00;102315.78;;;27.13
34807;BMP280;18310;55.586;12.286;2023-05-21T15:52:04;102311.91;;;27.07
34807;BMP280;18310;55.586;12.286;2023-05-21T15:55:07;102323.16;;;27.03
34807;BMP280;18310;55.586;12.286;2023-05-21T15:58:11;102315.34;;;27.14
34807;BMP280;18310;55.586;12.286;2023-05-21T16:01:14;102314.91;;;27.16
34807;BMP280;18310;55.586;12.286;2023-05-21T16:04:19;102318.94;;;27.15
34807;BMP280;18310;55.586;12.286;2023-05-21T16:07:22;102303.88;;;27.09
34807;BMP280;18310;55.586;12.286;2023-05-21T16:10:26;102306.50;;;27.16
34807;BMP280;18310;55.586;12.286;2023-05-21T16:13:29;102307.31;;;27.16
34807;BMP280;18310;55.586;12.286;2023-05-21T16:16:32;102297.72;;;27.17
34807;BMP280;18310;55.586;12.286;2023-05-21T16:19:37;102306.72;;;27.25
34807;BMP280;18310;55.586;12.286;2023-05-21T16:22:40;102301.84;;;27.29
34807;BMP280;18310;55.586;12.286;2023-05-21T16:25:44;102300.97;;;27.32
34807;BMP280;18310;55.586;12.286;2023-05-21T16:28:48;102292.94;;;27.34
34807;BMP280;18310;55.586;12.286;2023-05-21T16:31:51;102291.97;;;27.41
34807;BMP280;18310;55.586;12.286;2023-05-21T16:34:56;102295.41;;;27.48
34807;BMP280;18310;55.586;12.286;2023-05-21T16:37:59;102293.31;;;27.52
34807;BMP280;18310;55.586;12.286;2023-05-21T16:41:02;102294.06;;;27.53
34807;BMP280;18310;55.586;12.286;2023-05-21T16:44:06;102299.59;;;27.56
34807;BMP280;18310;55.586;12.286;2023-05-21T16:47:09;102295.13;;;27.59
34807;BMP280;18310;55.586;12.286;2023-05-21T16:50:14;102295.03;;;27.62
34807;BMP280;18310;55.586;12.286;2023-05-21T16:53:18;102292.22;;;27.62
34807;BMP280;18310;55.586;12.286;2023-05-21T16:56:21;102292.22;;;27.62
34807;BMP280;18310;55.586;12.286;2023-05-21T16:59:25;102283.41;;;27.64
34807;BMP280;18310;55.586;12.286;2023-05-21T17:02:28;102281.81;;;27.63
34807;BMP280;18310;55.586;12.286;2023-05-21T17:05:33;102277.28;;;27.53
34807;BMP280;18310;55.586;12.286;2023-05-21T17:08:36;102275.19;;;27.41
34807;BMP280;18310;55.586;12.286;2023-05-21T17:11:39;102279.97;;;27.40
34807;BMP280;18310;55.586;12.286;2023-05-21T17:14:44;102283.63;;;27.37
34807;BMP280;18310;55.586;12.286;2023-05-21T17:17:47;102283.63;;;27.37
34807;BMP280;18310;55.586;12.286;2023-05-21T17:20:53;102285.69;;;27.37